sensor_id;sensor_type;location;lat;lon;timestamp;P1;durP1;ratioP1;P2;durP2;ratioP2
64419;SDS011;50745;48.170;14.516;2022-10-31T00:06:41;3.47;;;2.90;;
64419;SDS011;50745;48.170;14.516;2022-10-31T00:16:42;4.38;;;3.38;;
64419;SDS011;50745;48.170;14.516;2022-10-31T00:26:43;3.65;;;3.00;;
64419;SDS011;50745;48.170;14.516;2022-10-31T00:36:45;3.88;;;2.97;;
64419;SDS011;50745;48.170;14.516;2022-10-31T00:46:47;4.00;;;2.90;;
64419;SDS011;50745;48.170;14.516;2022-10-31T00:56:49;3.63;;;2.83;;
64419;SDS011;50745;48.170;14.516;2022-10-31T01:06:51;3.85;;;2.92;;
64419;SDS011;50745;48.170;14.516;2022-10-31T01:16:52;3.90;;;2.97;;
64419;SDS011;50745;48.170;14.516;2022-10-31T01:26:53;4.38;;;3.28;;
64419;SDS011;50745;48.170;14.516;2022-10-31T01:36:54;4.40;;;3.00;;
64419;SDS011;50745;48.170;14.516;2022-10-31T01:47:02;4.10;;;3.10;;
64419;SDS011;50745;48.170;14.516;2022-10-31T01:57:05;4.20;;;3.22;;
64419;SDS011;50745;48.170;14.516;2022-10-31T02:07:10;4.88;;;3.05;;
64419;SDS011;50745;48.170;14.516;2022-10-31T02:17:13;4.43;;;2.70;;
64419;SDS011;50745;48.170;14.516;2022-10-31T02:27:36;4.22;;;2.78;;
64419;SDS011;50745;48.170;14.516;2022-10-31T02:47:45;4.00;;;3.20;;
64419;SDS011;50745;48.170;14.516;2022-10-31T02:57:49;4.17;;;2.97;;
64419;SDS011;50745;48.170;14.516;2022-10-31T03:28:00;4.40;;;2.90;;
64419;SDS011;50745;48.170;14.516;2022-10-31T03:38:03;5.20;;;2.90;;
64419;SDS011;50745;48.170;14.516;2022-10-31T03:48:07;3.77;;;2.50;;
64419;SDS011;50745;48.170;14.516;2022-10-31T03:58:10;3.70;;;2.80;;
64419;SDS011;50745;48.170;14.516;2022-10-31T04:08:15;4.28;;;2.65;;
64419;SDS011;50745;48.170;14.516;2022-10-31T04:18:18;3.35;;;2.50;;
64419;SDS011;50745;48.170;14.516;2022-10-31T04:28:19;2.88;;;2.30;;
64419;SDS011;50745;48.170;14.516;2022-10-31T04:38:21;3.28;;;2.65;;
64419;SDS011;50745;48.170;14.516;2022-10-31T04:48:24;3.58;;;2.42;;
64419;SDS011;50745;48.170;14.516;2022-10-31T04:58:26;3.55;;;2.67;;
64419;SDS011;50745;48.170;14.516;2022-10-31T05:08:27;2.60;;;2.38;;
64419;SDS011;50745;48.170;14.516;2022-10-31T05:18:30;3.55;;;2.70;;
64419;SDS011;50745;48.170;14.516;2022-10-31T05:28:52;3.58;;;2.58;;
64419;SDS011;50745;48.170;14.516;2022-10-31T05:38:54;3.15;;;2.40;;
64419;SDS011;50745;48.170;14.516;2022-10-31T05:49:00;3.40;;;2.65;;
64419;SDS011;50745;48.170;14.516;2022-10-31T05:59:34;3.17;;;2.45;;
64419;SDS011;50745;48.170;14.516;2022-10-31T06:09:36;3.67;;;2.55;;
64419;SDS011;50745;48.170;14.516;2022-10-31T06:19:37;3.22;;;2.50;;
64419;SDS011;50745;48.170;14.516;2022-10-31T06:29:39;3.53;;;2.63;;
64419;SDS011;50745;48.170;14.516;2022-10-31T06:39:44;2.80;;;2.25;;
64419;SDS011;50745;48.170;14.516;2022-10-31T06:49:48;4.50;;;2.50;;
64419;SDS011;50745;48.170;14.516;2022-10-31T06:59:51;3.40;;;2.63;;
64419;SDS011;50745;48.170;14.516;2022-10-31T07:09:57;3.08;;;2.42;;
64419;SDS011;50745;48.170;14.516;2022-10-31T07:20:24;2.95;;;2.30;;
64419;SDS011;50745;48.170;14.516;2022-10-31T07:30:25;2.70;;;2.30;;
64419;SDS011;50745;48.170;14.516;2022-10-31T07:40:30;3.28;;;2.40;;
64419;SDS011;50745;48.170;14.516;2022-10-31T07:50:31;3.70;;;2.30;;
64419;SDS011;50745;48.170;14.516;2022-10-31T08:01:02;2.95;;;2.25;;
64419;SDS011;50745;48.170;14.516;2022-10-31T08:11:13;3.78;;;2.58;;
64419;SDS011;50745;48.170;14.516;2022-10-31T08:21:14;3.40;;;2.38;;
64419;SDS011;50745;48.170;14.516;2022-10-31T08:31:16;2.95;;;2.30;;
64419;SDS011;50745;48.170;14.516;2022-10-31T08:41:17;4.28;;;2.53;;
64419;SDS011;50745;48.170;14.516;2022-10-31T08:51:19;3.17;;;2.35;;
64419;SDS011;50745;48.170;14.516;2022-10-31T09:01:22;3.17;;;2.25;;
64419;SDS011;50745;48.170;14.516;2022-10-31T09:11:24;3.35;;;2.40;;
64419;SDS011;50745;48.170;14.516;2022-10-31T09:21:54;3.90;;;2.58;;
64419;SDS011;50745;48.170;14.516;2022-10-31T09:31:56;3.25;;;2.40;;
64419;SDS011;50745;48.170;14.516;2022-10-31T09:42:06;3.67;;;2.55;;
64419;SDS011;50745;48.170;14.516;2022-10-31T09:52:29;5.05;;;2.70;;
64419;SDS011;50745;48.170;14.516;2022-10-31T10:02:39;4.45;;;2.60;;
64419;SDS011;50745;48.170;14.516;2022-10-31T10:22:55;3.83;;;2.67;;
64419;SDS011;50745;48.170;14.516;2022-10-31T10:32:59;6.20;;;2.58;;
64419;SDS011;50745;48.170;14.516;2022-10-31T10:43:10;3.78;;;2.53;;
64419;SDS011;50745;48.170;14.516;2022-10-31T10:53:50;3.63;;;2.60;;
64419;SDS011;50745;48.170;14.516;2022-10-31T11:04:02;3.80;;;2.33;;
64419;SDS011;50745;48.170;14.516;2022-10-31T11:14:05;3.53;;;2.60;;
64419;SDS011;50745;48.170;14.516;2022-10-31T11:24:23;6.60;;;2.80;;
64419;SDS011;50745;48.170;14.516;2022-10-31T11:34:36;3.83;;;2.50;;
64419;SDS011;50745;48.170;14.516;2022-10-31T11:44:41;3.47;;;2.55;;
64419;SDS011;50745;48.170;14.516;2022-10-31T11:54:47;3.63;;;2.50;;
64419;SDS011;50745;48.170;14.516;2022-10-31T12:04:59;3.42;;;2.50;;
64419;SDS011;50745;48.170;14.516;2022-10-31T13:15:32;3.87;;;2.60;;
64419;SDS011;50745;48.170;14.516;2022-10-31T13:25:40;4.43;;;2.53;;
64419;SDS011;50745;48.170;14.516;2022-10-31T13:35:47;3.75;;;2.60;;
64419;SDS011;50745;48.170;14.516;2022-10-31T13:45:53;3.50;;;2.60;;
64419;SDS011;50745;48.170;14.516;2022-10-31T13:56:14;4.80;;;2.90;;
64419;SDS011;50745;48.170;14.516;2022-10-31T14:06:16;5.40;;;3.20;;
64419;SDS011;50745;48.170;14.516;2022-10-31T14:16:18;4.32;;;3.35;;
64419;SDS011;50745;48.170;14.516;2022-10-31T14:56:39;6.93;;;4.90;;
64419;SDS011;50745;48.170;14.516;2022-10-31T15:06:44;6.03;;;4.27;;
64419;SDS011;50745;48.170;14.516;2022-10-31T15:16:46;7.30;;;5.70;;
64419;SDS011;50745;48.170;14.516;2022-10-31T15:26:52;6.83;;;5.37;;
64419;SDS011;50745;48.170;14.516;2022-10-31T15:36:53;7.20;;;6.30;;
64419;SDS011;50745;48.170;14.516;2022-10-31T15:46:55;9.80;;;6.82;;
64419;SDS011;50745;48.170;14.516;2022-10-31T15:56:56;8.70;;;6.60;;
64419;SDS011;50745;48.170;14.516;2022-10-31T16:06:59;9.55;;;7.70;;
64419;SDS011;50745;48.170;14.516;2022-10-31T16:17:01;8.35;;;7.05;;
64419;SDS011;50745;48.170;14.516;2022-10-31T16:27:04;10.13;;;8.18;;
64419;SDS011;50745;48.170;14.516;2022-10-31T16:37:05;10.20;;;7.55;;
64419;SDS011;50745;48.170;14.516;2022-10-31T16:47:12;9.25;;;7.50;;
64419;SDS011;50745;48.170;14.516;2022-10-31T16:57:14;9.35;;;7.68;;
64419;SDS011;50745;48.170;14.516;2022-10-31T17:07:16;7.93;;;6.65;;
64419;SDS011;50745;48.170;14.516;2022-10-31T17:17:17;7.68;;;6.38;;
64419;SDS011;50745;48.170;14.516;2022-10-31T17:27:19;6.90;;;6.15;;
64419;SDS011;50745;48.170;14.516;2022-10-31T17:37:20;6.72;;;5.93;;
64419;SDS011;50745;48.170;14.516;2022-10-31T17:47:22;7.18;;;5.88;;
64419;SDS011;50745;48.170;14.516;2022-10-31T17:57:23;6.85;;;5.82;;
64419;SDS011;50745;48.170;14.516;2022-10-31T18:07:24;7.65;;;5.70;;
64419;SDS011;50745;48.170;14.516;2022-10-31T18:17:26;7.30;;;5.43;;
64419;SDS011;50745;48.170;14.516;2022-10-31T18:27:27;6.47;;;5.40;;
64419;SDS011;50745;48.170;14.516;2022-10-31T18:37:29;6.80;;;5.05;;
64419;SDS011;50745;48.170;14.516;2022-10-31T18:47:30;6.07;;;5.07;;
64419;SDS011;50745;48.170;14.516;2022-10-31T18:57:31;6.65;;;5.20;;
64419;SDS011;50745;48.170;14.516;2022-10-31T19:07:32;6.22;;;5.40;;
64419;SDS011;50745;48.170;14.516;2022-10-31T19:17:34;5.85;;;5.07;;
64419;SDS011;50745;48.170;14.516;2022-10-31T19:27:35;6.40;;;5.43;;
64419;SDS011;50745;48.170;14.516;2022-10-31T19:37:37;6.00;;;5.30;;
64419;SDS011;50745;48.170;14.516;2022-10-31T19:47:39;7.28;;;5.25;;
64419;SDS011;50745;48.170;14.516;2022-10-31T19:57:40;6.15;;;5.22;;
64419;SDS011;50745;48.170;14.516;2022-10-31T20:07:42;6.97;;;5.20;;
64419;SDS011;50745;48.170;14.516;2022-10-31T20:17:43;5.80;;;5.00;;
64419;SDS011;50745;48.170;14.516;2022-10-31T20:27:45;5.85;;;5.10;;
64419;SDS011;50745;48.170;14.516;2022-10-31T20:37:46;6.07;;;5.40;;
64419;SDS011;50745;48.170;14.516;2022-10-31T20:47:47;6.10;;;5.00;;
64419;SDS011;50745;48.170;14.516;2022-10-31T20:57:49;7.00;;;5.28;;
64419;SDS011;50745;48.170;14.516;2022-10-31T21:07:50;6.95;;;5.47;;
64419;SDS011;50745;48.170;14.516;2022-10-31T21:17:52;6.47;;;5.70;;
64419;SDS011;50745;48.170;14.516;2022-10-31T21:27:53;8.77;;;6.18;;
64419;SDS011;50745;48.170;14.516;2022-10-31T21:37:54;9.05;;;5.72;;
64419;SDS011;50745;48.170;14.516;2022-10-31T21:47:58;8.77;;;5.80;;
64419;SDS011;50745;48.170;14.516;2022-10-31T21:57:59;7.15;;;5.63;;
64419;SDS011;50745;48.170;14.516;2022-10-31T22:08:01;7.05;;;5.68;;
64419;SDS011;50745;48.170;14.516;2022-10-31T22:18:02;6.70;;;5.50;;
64419;SDS011;50745;48.170;14.516;2022-10-31T22:28:03;6.47;;;5.45;;
64419;SDS011;50745;48.170;14.516;2022-10-31T22:38:08;6.93;;;5.87;;
64419;SDS011;50745;48.170;14.516;2022-10-31T22:48:09;6.85;;;5.90;;
64419;SDS011;50745;48.170;14.516;2022-10-31T22:58:10;6.28;;;5.10;;
64419;SDS011;50745;48.170;14.516;2022-10-31T23:08:11;6.78;;;5.50;;
64419;SDS011;50745;48.170;14.516;2022-10-31T23:18:12;6.40;;;5.43;;
64419;SDS011;50745;48.170;14.516;2022-10-31T23:28:14;6.10;;;5.10;;
64419;SDS011;50745;48.170;14.516;2022-10-31T23:38:15;7.72;;;5.20;;
64419;SDS011;50745;48.170;14.516;2022-10-31T23:48:16;7.22;;;5.50;;
64419;SDS011;50745;48.170;14.516;2022-10-31T23:58:18;6.30;;;5.30;;
